Flugplatz Saarlouis-Düren

Für EDRJ sind keine METAR/TAF Berichte vorhanden.
Es werden die Flugwettermeldungen vom Flugplatz Saarbrücken in 33 km Entfernung angezeigt.

Bericht für EDDR

vom 07.03. um 02:50 UTC

Wind 8 kt aus 50°

Sichtweite 10 km oder mehr

gute Sicht, keine Wolken < 5000 ft, keine CB, keine Wettererscheinungen (CAVOK)

Temperatur -2.0°C

Taupunkt -8.0°C

Luftfeuchtigkeit 63%

Luftdruck 1024 hPa

EDDR 070250Z 05008KT CAVOK M02/M08 Q1024

Prognose für EDDR

vom 06.03. um 23:00 UTC

Zwischen 00:00 UTC und 00:00 UTC

Wind 7 kt aus 40°

Sichtweite 10 km oder mehr

keine signifikanten Wettererscheinungen

keine Wolken

TAF EDDR 062300Z 0700/0724 04007KT CAVOK
Impressum